Time;durP1;ratioP1;P1;durP2;ratioP2;P2;SDS_P1;SDS_P2;PMS_P1;PMS_P2;Temp;Humidity;BMP_temperature;BMP_pressure;BME280_temperature;BME280_humidity;BME280_pressure;Samples;Min_cycle;Max_cycle;Signal;HPM_P1;HPM_P2
2022/06/08 11:49:38;;;;;;;2.35;1.50;;;;;;;29.11;29.58;97523.06;1885195;75;22114;-61
2022/06/08 11:52:38;;;;;;;4.30;1.50;;;;;;;29.16;30.31;97517.66;1853844;77;20907;-62
2022/06/08 11:55:19;;;;;;;4.75;1.55;;;;;;;29.39;29.64;97519.02;1836783;77;21387;-59
2022/06/08 11:57:53;;;;;;;3.85;1.70;;;;;;;29.61;29.82;97521.49;1859398;77;20871;-63
2022/06/08 12:00:36;;;;;;;3.33;1.40;;;;;;;29.82;29.22;97511.24;1854776;77;20868;-60
2022/06/08 12:03:21;;;;;;;4.15;1.70;;;;;;;29.95;28.83;97517.63;1860836;77;20939;-62
2022/06/08 12:05:51;;;;;;;3.52;1.40;;;;;;;29.91;29.77;97514.97;1848578;77;20935;-60
2022/06/08 12:08:43;;;;;;;3.77;1.30;;;;;;;29.97;29.58;97518.77;1851366;77;21667;-58
2022/06/08 12:11:14;;;;;;;5.15;1.52;;;;;;;30.11;28.23;97517.66;1838050;77;20900;-64
2022/06/08 12:14:14;;;;;;;3.37;1.70;;;;;;;30.15;28.48;97504.56;1854057;77;20978;-58
2022/06/08 12:17:14;;;;;;;2.08;1.30;;;;;;;30.23;28.26;97510.85;1839004;77;21050;-64
2022/06/08 12:19:51;;;;;;;5.47;1.40;;;;;;;30.41;27.48;97509.05;1853954;77;21070;-63
2022/06/08 12:22:21;;;;;;;3.12;1.47;;;;;;;30.59;27.69;97508.02;1855957;77;21044;-59
2022/06/08 12:25:22;;;;;;;2.35;1.40;;;;;;;30.74;27.88;97503.66;1852493;77;20968;-63
2022/06/08 12:28:05;;;;;;;3.22;1.50;;;;;;;30.91;28.11;97508.59;1831214;78;20960;-58
2022/06/08 12:30:47;;;;;;;4.12;1.50;;;;;;;31.05;27.06;97504.84;1831492;78;20972;-62
2022/06/08 12:33:20;;;;;;;4.58;1.40;;;;;;;31.11;27.74;97499.56;1831323;78;20833;-60
2022/06/08 12:36:11;;;;;;;6.33;2.52;;;;;;;31.17;27.23;97499.78;1831042;78;21116;-60
2022/06/08 12:38:41;;;;;;;3.60;2.10;;;;;;;31.16;26.68;97516.22;1831165;78;20988;-62
2022/06/08 12:41:15;;;;;;;3.98;1.52;;;;;;;31.15;26.61;97499.45;1827022;78;20913;-63
2022/06/08 12:43:52;;;;;;;6.95;1.70;;;;;;;31.24;26.82;97502.34;1831283;78;20972;-58
2022/06/08 12:46:31;;;;;;;3.12;1.60;;;;;;;31.38;26.19;97500.56;1795002;78;21032;-58
2022/06/08 12:49:04;;;;;;;5.62;2.15;;;;;;;31.50;26.06;97505.38;1835707;77;21239;-62
2022/06/08 12:51:40;;;;;;;7.05;1.90;;;;;;;31.57;26.31;97499.03;1855820;77;20954;-61
2022/06/08 12:54:18;;;;;;;4.97;1.60;;;;;;;31.59;26.52;97494.43;1859944;77;20954;-58
2022/06/08 12:56:46;;;;;;;8.30;1.60;;;;;;;31.62;26.68;97488.02;1834368;77;21571;-63
2022/06/08 12:59:13;;;;;;;3.70;1.50;;;;;;;31.71;25.83;97495.06;1831272;77;21009;-63
2022/06/08 13:01:41;;;;;;;4.28;1.52;;;;;;;31.62;25.57;97488.80;1827965;77;21111;-64
2022/06/08 13:04:08;;;;;;;3.42;1.50;;;;;;;31.60;25.86;97495.99;1847972;77;20987;-62
2022/06/08 13:06:34;;;;;;;2.25;1.10;;;;;;;31.70;25.62;97492.14;1832544;77;20970;-62
2022/06/08 13:09:01;;;;;;;3.35;1.47;;;;;;;31.86;25.22;97482.95;1836997;77;21048;-58
2022/06/08 13:11:29;;;;;;;3.70;1.20;;;;;;;31.99;25.20;97481.75;1830661;77;21425;-65
2022/06/08 13:13:57;;;;;;;3.87;1.37;;;;;;;32.08;24.29;97491.55;1838189;77;21125;-59
2022/06/08 13:16:27;;;;;;;5.03;1.52;;;;;;;32.06;24.78;97491.22;1837536;77;20953;-59
2022/06/08 13:18:54;;;;;;;4.47;1.37;;;;;;;32.00;24.55;97497.16;1830507;77;20916;-65
2022/06/08 13:21:22;;;;;;;2.20;1.17;;;;;;;31.99;24.55;97492.83;1857236;77;21472;-64
2022/06/08 13:23:50;;;;;;;6.42;1.40;;;;;;;32.04;24.64;97488.72;1832631;77;21473;-58
2022/06/08 13:26:20;;;;;;;3.55;1.20;;;;;;;32.14;24.96;97484.84;1848821;77;21109;-56
2022/06/08 13:28:47;;;;;;;5.35;1.42;;;;;;;32.30;24.41;97477.78;1828258;77;21101;-63
2022/06/08 13:31:14;;;;;;;3.00;1.25;;;;;;;32.50;25.25;97471.41;1827097;78;20968;-61
2022/06/08 13:34:00;;;;;;;4.40;1.47;;;;;;;32.70;24.99;97483.59;1827045;78;20927;-61
2022/06/08 13:36:34;;;;;;;3.70;1.20;;;;;;;32.83;24.51;97481.56;1827148;78;20896;-62
2022/06/08 13:39:36;;;;;;;5.50;1.20;;;;;;;32.89;23.34;97486.69;1827200;78;21082;-59
2022/06/08 13:42:07;;;;;;;3.02;1.32;;;;;;;32.75;23.65;97469.94;1827140;78;20919;-59
2022/06/08 13:44:43;;;;;;;7.17;1.32;;;;;;;32.86;24.53;97469.55;1827491;78;20955;-60
2022/06/08 13:47:28;;;;;;;5.62;1.20;;;;;;;33.09;23.83;97474.72;1826077;78;21521;-59
2022/06/08 13:50:12;;;;;;;4.90;1.47;;;;;;;33.16;23.84;97473.07;1832343;78;21376;-59
2022/06/08 13:52:41;;;;;;;7.00;1.37;;;;;;;33.11;23.33;97463.16;1833214;78;21233;-58
2022/06/08 13:55:16;;;;;;;8.08;1.95;;;;;;;32.93;23.77;97472.85;1833225;78;20856;-61
2022/06/08 13:57:44;;;;;;;4.42;1.00;;;;;;;32.91;23.90;97468.38;1833276;77;20868;-59
2022/06/08 14:00:13;;;;;;;5.80;1.37;;;;;;;32.90;23.01;97465.45;1833212;77;20891;-64
2022/06/08 14:02:59;;;;;;;2.90;1.20;;;;;;;32.94;23.44;97453.61;1833311;78;21544;-63
2022/06/08 14:13:55;;;;;;;3.08;1.20;;;;;;;33.94;22.72;97455.59;1833174;78;21243;-60
2022/06/08 14:16:23;;;;;;;1.60;1.10;;;;;;;33.92;22.42;97447.59;1833197;78;20927;-64
2022/06/08 14:18:52;;;;;;;1.10;1.00;;;;;;;33.93;22.55;97445.73;1833150;78;21108;-58
2022/06/08 14:21:19;;;;;;;3.15;1.30;;;;;;;33.92;22.69;97450.37;1833107;78;20860;-62
2022/06/08 14:23:50;;;;;;;5.17;1.10;;;;;;;33.81;22.29;97443.83;1833162;77;20907;-63
2022/06/08 14:26:20;;;;;;;2.62;1.00;;;;;;;33.58;22.63;97449.30;1833438;77;20836;-58
2022/06/08 14:28:49;;;;;;;2.80;1.30;;;;;;;33.47;23.24;97444.72;1833158;77;21421;-59
2022/06/08 14:31:25;;;;;;;4.03;1.20;;;;;;;33.55;22.68;97441.87;1833641;77;21104;-59
2022/06/08 14:33:52;;;;;;;2.15;0.88;;;;;;;33.49;22.16;97443.64;1833092;78;20919;-57
2022/06/08 14:36:22;;;;;;;3.30;1.30;;;;;;;33.35;22.97;97446.96;1833151;77;20911;-59
2022/06/08 14:38:49;;;;;;;3.12;1.12;;;;;;;33.40;22.88;97433.89;1833262;78;20903;-61
2022/06/08 14:41:15;;;;;;;4.12;1.20;;;;;;;33.50;22.76;97432.71;1833187;77;20895;-57
2022/06/08 14:43:45;;;;;;;2.80;1.02;;;;;;;33.55;22.97;97434.93;1833157;78;21131;-58
2022/06/08 14:46:14;;;;;;;4.55;1.30;;;;;;;33.60;22.57;97428.01;1833189;77;21406;-61
2022/06/08 14:48:44;;;;;;;3.52;1.20;;;;;;;33.54;22.72;97425.68;1833025;78;20915;-61
2022/06/08 14:51:14;;;;;;;2.58;1.05;;;;;;;33.62;22.60;97430.48;1833131;78;20916;-59
2022/06/08 14:53:42;;;;;;;1.65;0.90;;;;;;;33.66;22.56;97424.17;1833277;78;20967;-58
2022/06/08 14:56:24;;;;;;;3.87;1.00;;;;;;;33.71;22.77;97412.47;1833154;78;21100;-61
2022/06/08 14:59:04;;;;;;;7.40;1.85;;;;;;;33.88;22.64;97419.16;1833113;77;20903;-58
2022/06/08 15:01:30;;;;;;;7.00;1.77;;;;;;;34.00;23.11;97412.72;1830668;77;20967;-59
2022/06/08 15:03:57;;;;;;;3.67;1.82;;;;;;;34.12;23.07;97411.85;1833115;78;20907;-61
2022/06/08 15:06:24;;;;;;;4.78;1.52;;;;;;;34.18;22.42;97408.00;1833273;78;20872;-60
2022/06/08 15:08:51;;;;;;;6.28;1.45;;;;;;;34.18;22.66;97412.17;1833108;78;21115;-60
2022/06/08 15:14:23;;;;;;;6.50;1.60;;;;;;;34.22;22.35;97399.53;1833246;78;20950;-61
2022/06/08 15:16:50;;;;;;;2.75;1.00;;;;;;;34.21;22.86;97404.31;1833120;78;20923;-62
2022/06/08 15:19:27;;;;;;;4.42;0.90;;;;;;;34.23;22.22;97403.84;1833157;77;20872;-62
2022/06/08 15:21:54;;;;;;;3.77;1.07;;;;;;;34.15;22.50;97392.88;1833342;77;21093;-64
2022/06/08 15:24:21;;;;;;;2.05;1.20;;;;;;;34.10;22.81;97390.70;1833374;77;21481;-64
2022/06/08 15:26:49;;;;;;;2.77;1.20;;;;;;;34.06;23.03;97398.42;1833112;77;20848;-59
2022/06/08 15:29:21;;;;;;;4.70;1.27;;;;;;;34.01;23.08;97404.55;1833164;78;20872;-59
2022/06/08 15:31:48;;;;;;;6.87;1.32;;;;;;;33.90;22.95;97405.58;1833148;78;21371;-63
2022/06/08 15:34:20;;;;;;;3.62;1.30;;;;;;;33.82;22.69;97401.56;1833387;77;21147;-59
2022/06/08 15:36:48;;;;;;;2.58;1.27;;;;;;;33.61;22.98;97403.94;1833061;78;21434;-64
2022/06/08 15:39:17;;;;;;;5.28;1.57;;;;;;;33.34;23.47;97405.19;1833286;78;21276;-61
2022/06/08 15:41:49;;;;;;;4.85;1.60;;;;;;;33.09;23.55;97407.50;1833118;77;20926;-63
2022/06/08 15:44:15;;;;;;;4.30;1.75;;;;;;;32.85;23.61;97408.40;1833164;78;20875;-60
2022/06/08 15:46:43;;;;;;;5.58;1.98;;;;;;;32.36;24.06;97403.33;1833112;78;21905;-62
2022/06/08 15:49:14;;;;;;;3.70;1.40;;;;;;;31.93;24.87;97403.20;1832910;78;20986;-63
2022/06/08 15:51:43;;;;;;;5.35;1.65;;;;;;;31.50;25.33;97400.22;1833128;77;20868;-59
2022/06/08 15:54:14;;;;;;;3.30;1.15;;;;;;;31.00;25.94;97404.44;1833107;77;21058;-59
2022/06/08 15:56:47;;;;;;;2.00;1.10;;;;;;;30.53;26.36;97403.36;1833250;78;21437;-64
2022/06/08 15:59:21;;;;;;;3.05;0.80;;;;;;;30.11;27.15;97402.45;1833516;77;21222;-63
2022/06/08 16:01:48;;;;;;;1.75;1.15;;;;;;;29.79;27.55;97399.09;1832811;77;20895;-62
2022/06/08 16:04:14;;;;;;;4.22;1.12;;;;;;;29.46;27.75;97401.63;1833183;77;20903;-64
2022/06/08 16:06:42;;;;;;;5.92;1.42;;;;;;;29.16;28.25;97411.50;1833077;77;20950;-59
2022/06/08 16:09:09;;;;;;;4.00;1.47;;;;;;;28.93;28.41;97407.45;1833303;78;21375;-62
2022/06/08 16:11:38;;;;;;;4.45;1.30;;;;;;;28.72;29.06;97407.88;1833398;78;21921;-62
2022/06/08 16:14:05;;;;;;;3.70;1.45;;;;;;;28.54;29.28;97410.17;1833313;77;20861;-64
2022/06/08 16:16:34;;;;;;;4.80;1.92;;;;;;;28.41;29.63;97406.66;1833343;78;21020;-58
2022/06/08 16:19:00;;;;;;;10.25;3.50;;;;;;;28.30;29.94;97410.21;1833155;78;20916;-58
2022/06/08 16:21:28;;;;;;;6.12;3.22;;;;;;;28.20;30.29;97405.66;1833069;78;20919;-58
2022/06/08 16:23:55;;;;;;;9.70;3.62;;;;;;;28.10;30.51;97405.86;1833077;78;21138;-63
2022/06/08 16:26:21;;;;;;;8.83;3.50;;;;;;;28.00;31.00;97414.47;1833108;78;20962;-59
2022/06/08 16:28:49;;;;;;;7.25;2.80;;;;;;;27.88;31.12;97410.11;1833016;78;20986;-60
2022/06/08 16:31:16;;;;;;;5.72;3.87;;;;;;;27.72;31.05;97410.77;1833039;78;20895;-58
2022/06/08 16:33:43;;;;;;;9.03;3.92;;;;;;;27.56;31.49;97407.84;1833085;78;20876;-63
2022/06/08 16:36:09;;;;;;;7.55;3.67;;;;;;;27.48;31.73;97414.66;1833275;78;21009;-64
2022/06/08 16:38:36;;;;;;;4.37;2.02;;;;;;;27.39;31.74;97417.14;1833148;77;20856;-61
2022/06/08 16:41:04;;;;;;;5.17;2.30;;;;;;;27.27;31.63;97412.17;1833311;77;20902;-62
2022/06/08 16:43:30;;;;;;;5.90;2.60;;;;;;;27.17;31.88;97411.12;1833198;78;20912;-62
2022/06/08 16:45:58;;;;;;;6.28;2.00;;;;;;;27.10;32.09;97407.88;1833265;77;20860;-63
2022/06/08 16:48:25;;;;;;;7.78;3.10;;;;;;;27.03;32.32;97403.84;1833405;78;21418;-60
2022/06/08 16:50:55;;;;;;;9.65;4.15;;;;;;;26.95;32.89;97398.23;1833179;77;20911;-64
2022/06/08 16:53:21;;;;;;;8.48;4.20;;;;;;;26.89;32.97;97399.11;1833225;77;21427;-65
2022/06/08 16:55:48;;;;;;;4.87;3.35;;;;;;;26.83;33.41;97402.11;1833306;77;20888;-63
2022/06/08 17:01:00;;;;;;;4.08;1.80;;;;;;;26.68;33.64;97396.00;1833542;78;21840;-61
2022/06/08 17:03:27;;;;;;;5.40;2.25;;;;;;;26.57;33.50;97398.06;1833455;78;21363;-60
2022/06/08 17:05:53;;;;;;;6.47;2.05;;;;;;;26.48;33.91;97397.19;1833206;77;20988;-61
2022/06/08 17:08:21;;;;;;;4.15;2.05;;;;;;;26.41;34.41;97400.59;1833247;77;21450;-59
2022/06/08 17:13:33;;;;;;;5.25;1.40;;;;;;;26.20;34.77;97403.55;1833223;78;21921;-59
2022/06/08 17:21:14;;;;;;;6.55;1.80;;;;;;;25.95;35.85;97405.12;1833573;78;21442;-59
2022/06/08 17:23:42;;;;;;;7.28;2.00;;;;;;;25.87;35.81;97405.56;1833210;78;20970;-59
2022/06/08 17:26:08;;;;;;;6.83;1.77;;;;;;;25.82;35.78;97401.30;1833292;77;21207;-61
2022/06/08 17:28:36;;;;;;;6.40;1.90;;;;;;;25.75;36.08;97401.34;1833090;78;20872;-60
2022/06/08 17:31:03;;;;;;;4.85;1.98;;;;;;;25.65;36.57;97407.09;1833198;78;20907;-64
2022/06/08 17:33:30;;;;;;;8.53;2.15;;;;;;;25.55;36.88;97400.33;1833403;77;21536;-60
2022/06/08 17:35:56;;;;;;;7.35;2.60;;;;;;;25.44;37.33;97405.88;1833398;78;20899;-62
2022/06/08 17:38:23;;;;;;;5.20;2.37;;;;;;;25.34;37.59;97405.33;1833530;78;21473;-65
2022/06/08 17:40:50;;;;;;;6.50;2.70;;;;;;;25.22;37.80;97405.79;1833190;78;20993;-62
2022/06/08 17:43:17;;;;;;;11.00;2.95;;;;;;;25.13;37.96;97406.20;1833279;77;20832;-61
2022/06/08 17:45:45;;;;;;;12.28;3.08;;;;;;;25.03;38.31;97407.64;1833246;78;20880;-62
2022/06/08 17:48:12;;;;;;;14.73;3.17;;;;;;;24.93;38.53;97413.36;1833271;78;20928;-59
2022/06/08 17:50:39;;;;;;;8.68;3.40;;;;;;;24.84;38.75;97414.38;1833098;77;21176;-59
2022/06/08 17:53:06;;;;;;;22.85;5.00;;;;;;;24.76;38.97;97414.75;1833188;77;20901;-61
2022/06/08 17:55:33;;;;;;;17.57;5.10;;;;;;;24.65;39.96;97415.38;1833169;78;20955;-59
2022/06/08 17:57:59;;;;;;;11.85;5.05;;;;;;;24.53;40.32;97425.37;1833266;78;20928;-61
2022/06/08 18:00:26;;;;;;;21.75;3.87;;;;;;;24.41;40.95;97431.47;1833295;77;20911;-63
2022/06/08 18:02:54;;;;;;;24.43;4.45;;;;;;;24.30;41.58;97429.35;1833179;77;21110;-61
2022/06/08 18:05:20;;;;;;;18.60;4.78;;;;;;;24.17;42.51;97434.22;1833310;77;21454;-59
2022/06/08 18:07:47;;;;;;;21.95;4.78;;;;;;;24.03;42.36;97431.47;1833654;77;20876;-58
2022/06/08 18:10:18;;;;;;;20.48;5.37;;;;;;;23.90;42.54;97439.30;1833241;77;20912;-59
2022/06/08 18:12:45;;;;;;;19.32;4.10;;;;;;;23.79;43.18;97441.22;1832864;77;20907;-63
2022/06/08 18:15:13;;;;;;;27.22;4.70;;;;;;;23.66;43.83;97436.73;1833149;78;21105;-59
2022/06/08 18:17:40;;;;;;;23.87;5.40;;;;;;;23.56;44.28;97446.27;1833077;77;20915;-59
2022/06/08 18:20:10;;;;;;;41.53;5.60;;;;;;;23.42;45.09;97438.83;1833145;78;20868;-61
2022/06/08 18:22:40;;;;;;;46.13;7.25;;;;;;;23.17;46.10;97452.98;1833708;78;20899;-59
2022/06/08 18:25:09;;;;;;;72.53;7.58;;;;;;;23.17;46.10;97452.98;1833224;77;20864;-58
2022/06/08 18:27:42;;;;;;;59.93;7.42;;;;;;;23.05;46.69;97452.75;1833448;78;21065;-61
2022/06/08 18:30:20;;;;;;;66.70;7.25;;;;;;;22.93;47.19;97464.00;1833057;78;20844;-64
2022/06/08 18:32:47;;;;;;;54.40;6.22;;;;;;;22.79;47.65;97461.20;1832827;77;20868;-61
2022/06/08 18:35:16;;;;;;;59.98;6.17;;;;;;;22.66;48.12;97466.02;1833238;78;20959;-56
2022/06/08 18:37:44;;;;;;;26.90;5.30;;;;;;;22.51;48.44;97468.41;1833272;78;20962;-62
2022/06/08 18:40:12;;;;;;;16.57;4.67;;;;;;;22.36;48.74;97466.16;1833132;77;21100;-64
2022/06/08 18:42:48;;;;;;;12.50;4.22;;;;;;;22.24;49.14;97473.28;1833363;78;20911;-59
2022/06/08 18:45:15;;;;;;;22.40;5.12;;;;;;;22.10;49.64;97476.69;1833208;78;20927;-59
2022/06/08 18:47:41;;;;;;;30.35;5.80;;;;;;;21.97;50.11;97473.27;1833392;78;20959;-63
2022/06/08 18:50:15;;;;;;;21.48;6.55;;;;;;;21.85;50.81;97472.19;1830971;77;21363;-58
2022/06/08 18:52:45;;;;;;;23.57;8.98;;;;;;;21.73;51.74;97478.09;1827023;78;21089;-63
2022/06/08 18:55:20;;;;;;;24.95;10.05;;;;;;;21.63;52.99;97478.77;1827245;78;20939;-59
2022/06/08 18:57:47;;;;;;;21.60;9.03;;;;;;;21.53;53.74;97479.42;1827328;78;20888;-63
2022/06/08 19:00:16;;;;;;;26.37;7.42;;;;;;;21.41;54.17;97485.13;1827079;78;21518;-61
2022/06/08 19:02:48;;;;;;;24.00;5.35;;;;;;;21.30;54.37;97482.88;1827411;78;20971;-63
2022/06/08 19:05:19;;;;;;;23.38;4.70;;;;;;;21.23;54.45;97485.52;1827224;78;22006;-59
2022/06/08 19:07:50;;;;;;;16.65;4.75;;;;;;;21.15;54.28;97481.73;1827247;78;20856;-59
2022/06/08 19:10:14;;;;;;;23.12;4.10;;;;;;;21.11;54.24;97488.48;1826166;78;21474;-61
2022/06/08 19:12:42;;;;;;;16.07;5.20;;;;;;;21.01;54.62;97485.01;1827078;78;20958;-61
2022/06/08 19:15:13;;;;;;;22.90;6.72;;;;;;;20.94;55.20;97482.20;1827118;78;21383;-63
2022/06/08 19:20:45;;;;;;;22.07;8.73;;;;;;;20.76;57.17;97486.06;1827199;78;20981;-63
2022/06/08 19:23:18;;;;;;;20.97;9.80;;;;;;;20.62;57.98;97483.71;1827012;78;20950;-59
2022/06/08 19:25:48;;;;;;;28.70;11.53;;;;;;;20.49;58.61;97489.17;1827272;78;20923;-59
2022/06/08 19:28:16;;;;;;;24.40;9.03;;;;;;;20.37;59.24;97486.84;1827021;78;20909;-59
2022/06/08 19:30:48;;;;;;;13.32;4.15;;;;;;;20.25;59.56;97491.16;1827170;78;21429;-60
2022/06/08 19:33:12;;;;;;;9.23;4.45;;;;;;;20.14;58.88;97491.50;1826355;78;20963;-58
2022/06/08 19:35:39;;;;;;;14.87;3.85;;;;;;;20.12;58.09;97487.02;1826998;78;20871;-60
2022/06/08 19:38:06;;;;;;;10.13;4.03;;;;;;;20.13;57.80;97481.00;1826981;78;20876;-60
2022/06/08 19:40:34;;;;;;;9.25;3.75;;;;;;;20.14;57.69;97479.84;1827440;78;21470;-58
2022/06/08 19:43:04;;;;;;;9.83;3.67;;;;;;;20.18;57.46;97486.14;1827109;78;21116;-60
2022/06/08 19:45:32;;;;;;;8.18;2.80;;;;;;;20.18;57.28;97485.57;1806689;78;21454;-63
2022/06/08 19:47:58;;;;;;;7.62;2.90;;;;;;;20.21;56.99;97489.47;1827059;78;20829;-62
2022/06/08 19:50:25;;;;;;;6.83;3.20;;;;;;;20.22;56.90;97492.44;1824234;78;20912;-63
2022/06/08 19:52:52;;;;;;;11.68;3.10;;;;;;;20.21;56.68;97484.82;1815756;78;20888;-58
2022/06/08 19:55:18;;;;;;;5.17;2.77;;;;;;;20.21;56.89;97487.54;1815836;79;21282;-61
2022/06/08 19:57:44;;;;;;;8.95;2.65;;;;;;;20.19;56.60;97487.13;1815678;78;20833;-64
2022/06/08 20:00:13;;;;;;;8.35;3.00;;;;;;;20.19;56.17;97491.77;1816122;79;20896;-59
2022/06/08 20:02:39;;;;;;;8.40;2.95;;;;;;;20.17;55.89;97489.42;1815904;78;21518;-64
2022/06/08 20:05:07;;;;;;;6.72;3.20;;;;;;;20.18;56.35;97489.65;1815835;79;20896;-61
2022/06/08 20:07:34;;;;;;;8.83;3.33;;;;;;;20.16;56.05;97497.36;1816206;79;21099;-59
2022/06/08 20:10:04;;;;;;;4.83;3.08;;;;;;;20.17;56.31;97493.50;1815799;78;20929;-59
2022/06/08 20:12:31;;;;;;;5.90;3.20;;;;;;;20.14;56.29;97490.14;1815969;79;20936;-63
2022/06/08 20:14:58;;;;;;;7.70;3.00;;;;;;;20.13;56.57;97494.03;1816070;79;21383;-63
2022/06/08 20:17:25;;;;;;;4.95;3.37;;;;;;;20.12;56.99;97497.09;1815924;79;20908;-60
2022/06/08 20:19:52;;;;;;;10.25;3.90;;;;;;;20.07;56.98;97495.47;1815971;79;21917;-58
2022/06/08 20:22:18;;;;;;;8.90;4.22;;;;;;;20.01;57.58;97498.29;1815831;79;20861;-63
2022/06/08 20:24:46;;;;;;;5.60;3.00;;;;;;;19.95;57.62;97497.00;1815997;78;20868;-63
2022/06/08 20:27:13;;;;;;;10.15;2.70;;;;;;;19.88;57.47;97490.69;1815979;79;20952;-62
2022/06/08 20:29:40;;;;;;;6.08;2.37;;;;;;;19.83;57.41;97497.21;1815894;78;21006;-62
2022/06/08 20:32:07;;;;;;;12.78;2.87;;;;;;;19.79;57.14;97495.77;1816007;78;21072;-60
2022/06/08 20:34:35;;;;;;;11.55;2.77;;;;;;;19.75;57.07;97493.58;1815820;79;20912;-64
2022/06/08 20:37:02;;;;;;;5.45;2.85;;;;;;;19.72;57.10;97487.50;1815895;78;20956;-63
2022/06/08 20:39:29;;;;;;;7.37;2.35;;;;;;;19.69;57.19;97495.00;1815966;79;20915;-63
2022/06/08 20:41:59;;;;;;;10.68;2.80;;;;;;;19.66;57.04;97490.88;1815997;79;20919;-61
2022/06/08 20:44:25;;;;;;;10.58;2.80;;;;;;;19.65;57.24;97492.02;1816048;78;21865;-59
2022/06/08 20:46:52;;;;;;;7.50;2.65;;;;;;;19.61;57.29;97488.45;1815898;79;20994;-63
2022/06/08 20:49:19;;;;;;;5.15;2.62;;;;;;;19.59;57.16;97494.83;1816070;78;20865;-64
2022/06/08 20:51:45;;;;;;;4.80;2.58;;;;;;;19.56;57.21;97494.18;1815995;78;20873;-58
2022/06/08 20:54:12;;;;;;;5.95;2.75;;;;;;;19.53;57.31;97494.89;1816220;78;21486;-61
2022/06/08 20:56:38;;;;;;;5.40;2.55;;;;;;;19.50;57.17;97492.92;1815982;78;21114;-58
2022/06/08 20:59:07;;;;;;;6.55;2.75;;;;;;;19.49;57.24;97495.41;1815792;78;21383;-61
2022/06/08 21:01:34;;;;;;;4.92;2.98;;;;;;;19.46;57.52;97496.12;1815860;79;21482;-62
2022/06/08 21:04:01;;;;;;;4.60;2.70;;;;;;;19.39;58.00;97489.98;1815952;78;20885;-59
2022/06/08 21:06:27;;;;;;;7.67;2.92;;;;;;;19.35;58.36;97492.39;1815878;79;20857;-59
2022/06/08 21:08:54;;;;;;;6.97;2.60;;;;;;;19.30;58.35;97494.03;1815948;79;21163;-63
2022/06/08 21:11:21;;;;;;;5.42;2.62;;;;;;;19.28;57.95;97494.97;1815890;79;20998;-61
2022/06/08 21:13:48;;;;;;;7.85;2.62;;;;;;;19.26;58.33;97493.19;1816072;79;21375;-63
2022/06/08 21:16:15;;;;;;;7.92;2.70;;;;;;;19.23;58.36;97494.69;1815927;79;20919;-63
2022/06/08 21:18:41;;;;;;;7.60;2.80;;;;;;;19.19;58.19;97491.69;1815873;79;20955;-59
2022/06/08 21:21:11;;;;;;;4.50;2.40;;;;;;;19.16;58.15;97491.83;1815836;79;21209;-59
2022/06/08 21:23:39;;;;;;;7.58;2.77;;;;;;;19.15;57.91;97493.56;1815891;78;20908;-58
2022/06/08 21:26:06;;;;;;;5.08;2.83;;;;;;;19.13;58.09;97496.05;1815849;79;20833;-59
2022/06/08 21:28:32;;;;;;;6.83;3.25;;;;;;;19.11;58.04;97491.55;1815822;78;20971;-63
2022/06/08 21:31:00;;;;;;;4.20;2.67;;;;;;;19.08;58.12;97490.90;1815859;79;20853;-64
2022/06/08 21:33:27;;;;;;;10.43;2.75;;;;;;;19.05;58.26;97490.24;1815849;78;21109;-58
2022/06/08 21:35:53;;;;;;;5.35;2.85;;;;;;;19.03;58.47;97491.17;1815883;78;20963;-64
2022/06/08 21:38:19;;;;;;;5.37;2.55;;;;;;;19.01;58.36;97486.68;1816050;78;21379;-59
2022/06/08 21:40:46;;;;;;;4.87;2.30;;;;;;;18.99;58.39;97487.61;1815833;78;20872;-60
2022/06/08 21:43:15;;;;;;;5.47;2.52;;;;;;;18.97;58.52;97486.39;1815868;78;20968;-63
2022/06/08 21:45:43;;;;;;;5.85;2.42;;;;;;;18.93;58.53;97489.61;1816151;78;21415;-65
2022/06/08 21:48:10;;;;;;;7.85;3.10;;;;;;;18.91;58.62;97495.38;1815775;79;21356;-63
2022/06/08 21:50:39;;;;;;;7.37;2.55;;;;;;;18.89;58.55;97488.17;1816414;78;20904;-63
2022/06/08 21:53:09;;;;;;;3.80;2.20;;;;;;;18.88;58.56;97490.69;1812643;79;21380;-61
2022/06/08 21:55:36;;;;;;;3.62;2.30;;;;;;;18.89;58.38;97491.45;1810418;79;20869;-59
2022/06/08 21:58:03;;;;;;;6.75;2.62;;;;;;;18.87;58.36;97486.95;1810403;78;21347;-61
2022/06/08 22:00:37;;;;;;;5.03;2.27;;;;;;;18.87;58.39;97483.67;1810355;78;21007;-59
2022/06/08 22:03:05;;;;;;;4.25;2.50;;;;;;;18.85;58.29;97479.17;1810324;79;21435;-59
2022/06/08 22:05:32;;;;;;;4.03;2.50;;;;;;;18.85;58.25;97476.47;1810358;79;20968;-59
2022/06/08 22:08:01;;;;;;;5.85;2.20;;;;;;;18.84;58.75;97478.19;1810397;78;20880;-63
2022/06/08 22:10:28;;;;;;;6.97;2.70;;;;;;;18.81;58.79;97472.90;1810501;78;21099;-63
2022/06/08 22:12:55;;;;;;;4.65;2.65;;;;;;;18.77;58.76;97468.55;1810308;78;20985;-59
2022/06/08 22:15:22;;;;;;;5.40;2.33;;;;;;;18.74;58.48;97467.33;1810687;78;21411;-63
2022/06/08 22:17:51;;;;;;;4.65;2.15;;;;;;;18.75;58.57;97470.80;1810357;79;21007;-63
2022/06/08 22:20:20;;;;;;;5.72;2.45;;;;;;;18.71;58.54;97470.73;1810392;79;20925;-58
2022/06/08 22:22:47;;;;;;;4.45;2.10;;;;;;;18.68;58.67;97474.15;1810586;79;21085;-62
2022/06/08 22:25:14;;;;;;;8.38;2.40;;;;;;;18.66;58.72;97473.72;1810405;78;20913;-64
2022/06/08 22:27:42;;;;;;;2.87;1.92;;;;;;;18.63;58.75;97471.71;1810447;78;20959;-58
2022/06/08 22:30:14;;;;;;;5.47;2.33;;;;;;;18.64;58.71;97475.22;1810311;79;21002;-61
2022/06/08 22:32:44;;;;;;;5.70;2.58;;;;;;;18.62;58.87;97475.58;1810350;79;20897;-62
2022/06/08 22:35:13;;;;;;;4.60;2.15;;;;;;;18.60;59.30;97472.45;1810400;78;21044;-57
2022/06/08 22:37:40;;;;;;;3.80;2.35;;;;;;;18.56;59.55;97472.91;1810602;78;20956;-63
2022/06/08 22:40:09;;;;;;;4.10;2.20;;;;;;;18.52;59.54;97469.34;1810591;78;21399;-62
2022/06/08 22:42:39;;;;;;;3.60;2.10;;;;;;;18.51;59.46;97472.42;1810815;78;20889;-58
2022/06/08 22:45:11;;;;;;;2.95;1.82;;;;;;;18.48;59.60;97471.77;1810469;79;20943;-63
2022/06/08 22:47:44;;;;;;;4.95;2.00;;;;;;;18.45;59.58;97473.22;1799838;79;21054;-63
2022/06/08 22:50:11;;;;;;;3.92;2.05;;;;;;;18.41;59.57;97460.95;1810447;78;20857;-60
2022/06/08 22:52:39;;;;;;;5.40;2.10;;;;;;;18.38;59.83;97464.93;1799259;79;20908;-59
2022/06/08 22:55:09;;;;;;;3.60;2.37;;;;;;;18.35;60.04;97458.84;1817304;78;21391;-58
2022/06/08 22:57:36;;;;;;;5.08;2.30;;;;;;;18.32;59.99;97460.34;1815816;79;20910;-59
2022/06/08 23:00:08;;;;;;;7.28;2.15;;;;;;;18.29;60.10;97454.85;1815775;78;22021;-63
2022/06/08 23:02:34;;;;;;;3.05;2.02;;;;;;;18.28;60.20;97458.69;1816198;79;20951;-64
2022/06/08 23:05:01;;;;;;;4.03;2.25;;;;;;;18.25;60.39;97456.11;1815755;78;20935;-61
2022/06/08 23:07:27;;;;;;;4.35;2.10;;;;;;;18.24;60.39;97456.48;1815849;79;20960;-63
2022/06/08 23:10:00;;;;;;;4.12;2.20;;;;;;;18.23;60.45;97454.92;1816069;79;20935;-62
2022/06/08 23:12:26;;;;;;;6.03;2.33;;;;;;;18.21;60.43;97461.23;1815881;79;21223;-58
2022/06/08 23:20:28;;;;;;;5.12;2.02;;;;;;;18.16;60.69;97452.05;1815851;78;20881;-61
2022/06/08 23:22:56;;;;;;;4.83;2.20;;;;;;;18.15;60.81;97450.46;1806643;79;20897;-58
2022/06/08 23:25:24;;;;;;;3.72;2.10;;;;;;;18.11;60.94;97455.02;1815731;79;21902;-61
2022/06/08 23:27:51;;;;;;;4.05;2.37;;;;;;;18.08;61.01;97451.65;1815685;79;20979;-63
2022/06/08 23:30:19;;;;;;;5.85;2.60;;;;;;;18.06;61.25;97445.23;1815737;78;20860;-61
2022/06/08 23:32:46;;;;;;;6.05;2.20;;;;;;;18.03;61.34;97447.28;1815841;79;20880;-58
2022/06/08 23:35:12;;;;;;;4.37;2.47;;;;;;;18.01;61.39;97448.77;1816062;79;20876;-61
2022/06/08 23:37:39;;;;;;;4.05;2.50;;;;;;;17.99;61.46;97449.70;1816061;79;21367;-62
2022/06/08 23:40:08;;;;;;;4.08;2.47;;;;;;;17.97;61.59;97446.55;1815673;79;20869;-58
2022/06/08 23:42:35;;;;;;;9.50;2.47;;;;;;;17.95;61.56;97450.95;1816132;79;20893;-64
2022/06/08 23:45:02;;;;;;;3.47;2.33;;;;;;;17.95;62.17;97448.80;1815801;78;21470;-64
2022/06/08 23:47:29;;;;;;;3.80;2.37;;;;;;;17.87;62.16;97449.22;1815778;78;20904;-63
2022/06/08 23:52:41;;;;;;;3.83;2.17;;;;;;;17.76;62.81;97450.30;1810624;79;27404;-57
2022/06/08 23:55:10;;;;;;;7.40;2.30;;;;;;;17.70;62.94;97453.63;1807907;78;20865;-60
2022/06/08 23:57:36;;;;;;;4.12;2.40;;;;;;;17.65;63.00;97450.61;1810392;79;20877;-59
